Time;durP1;ratioP1;P1;durP2;ratioP2;P2;SDS_P1;SDS_P2;PMS_P1;PMS_P2;Temp;Humidity;BMP_temperature;BMP_pressure;BME280_temperature;BME280_humidity;BME280_pressure;Samples;Min_cycle;Max_cycle;Signal;HPM_P1;HPM_P2
2023/08/22 00:00:52;;;;;;;10.10;4.00;;;19.50;99.90;;;;;;4232321;28;20149;-81
2023/08/22 00:02:52;;;;;;;11.68;4.38;;;19.50;99.90;;;;;;4232117;28;20051;-80
2023/08/22 00:04:54;;;;;;;6.38;3.40;;;19.50;99.90;;;;;;4232125;28;20040;-80
2023/08/22 00:06:55;;;;;;;5.63;3.80;;;19.50;99.90;;;;;;4231650;28;20055;-80
2023/08/22 00:08:56;;;;;;;6.75;3.55;;;19.50;99.90;;;;;;4231417;28;20516;-80
2023/08/22 00:10:59;;;;;;;9.00;3.83;;;19.50;99.90;;;;;;4231990;28;20108;-80
2023/08/22 00:13:00;;;;;;;5.40;3.67;;;19.50;99.90;;;;;;4214233;28;20040;-80
2023/08/22 00:15:04;;;;;;;10.32;3.85;;;19.40;99.90;;;;;;4231989;28;20049;-81
2023/08/22 00:17:04;;;;;;;8.63;4.00;;;19.40;99.90;;;;;;4231735;28;20039;-80
2023/08/22 00:19:05;;;;;;;9.93;3.72;;;19.40;99.90;;;;;;4231864;28;20048;-81
2023/08/22 00:21:06;;;;;;;7.45;3.80;;;19.40;99.90;;;;;;4231800;28;20118;-80
2023/08/22 00:23:07;;;;;;;7.07;3.58;;;19.40;99.90;;;;;;4231745;28;20085;-80
2023/08/22 00:25:09;;;;;;;16.40;6.22;;;18.50;99.90;;;;;;4236891;27;20448;-79
2023/08/22 00:27:11;;;;;;;11.70;4.07;;;19.40;99.90;;;;;;4255828;27;20039;-80
2023/08/22 00:29:12;;;;;;;9.38;3.65;;;19.40;99.90;;;;;;4262553;27;20125;-80
2023/08/22 00:31:13;;;;;;;7.32;3.97;;;19.40;99.90;;;;;;4263144;27;20039;-80
2023/08/22 00:33:13;;;;;;;8.20;4.28;;;19.40;99.90;;;;;;4232756;28;20176;-80
2023/08/22 00:35:14;;;;;;;7.80;4.20;;;19.40;99.90;;;;;;4249804;27;20057;-80
2023/08/22 00:37:15;;;;;;;13.40;4.50;;;19.40;99.90;;;;;;4250194;27;20429;-80
2023/08/22 00:39:16;;;;;;;9.32;4.05;;;19.40;99.90;;;;;;4249865;27;20043;-80
2023/08/22 00:41:17;;;;;;;6.70;3.67;;;19.40;99.90;;;;;;4249371;27;20039;-80
2023/08/22 00:43:17;;;;;;;6.32;3.40;;;19.30;99.90;;;;;;4230330;28;20056;-80
2023/08/22 00:45:18;;;;;;;11.32;3.95;;;19.30;99.90;;;;;;4248976;27;20079;-80
2023/08/22 00:47:20;;;;;;;11.82;4.40;;;19.30;99.90;;;;;;4249134;27;20120;-80
2023/08/22 00:49:20;;;;;;;7.50;4.22;;;19.30;99.90;;;;;;4248938;27;20495;-80
2023/08/22 00:51:22;;;;;;;8.68;3.75;;;19.30;99.90;;;;;;4248910;27;20082;-80
2023/08/22 00:53:23;;;;;;;8.30;4.70;;;19.30;99.90;;;;;;4249016;27;20047;-80
2023/08/22 00:55:24;;;;;;;8.52;3.67;;;19.20;99.90;;;;;;4230679;28;20480;-80
2023/08/22 00:57:24;;;;;;;6.90;3.67;;;19.20;99.90;;;;;;4248367;27;20437;-80
2023/08/22 00:59:26;;;;;;;8.93;4.38;;;19.10;99.90;;;;;;4230524;28;20047;-80
2023/08/22 01:01:28;;;;;;;6.63;3.88;;;19.10;99.90;;;;;;4248209;27;20543;-80
2023/08/22 01:03:29;;;;;;;9.38;4.00;;;19.00;99.90;;;;;;4248556;27;20118;-80
2023/08/22 01:05:33;;;;;;;5.93;3.15;;;19.00;99.90;;;;;;4231194;28;20039;-80
2023/08/22 01:08:19;;;;;;;8.65;3.20;;;19.00;99.90;;;;;;4248645;27;20057;-80
2023/08/22 01:10:28;;;;;;;7.65;3.40;;;19.00;99.90;;;;;;4178936;28;20416;-80
2023/08/22 01:12:43;;;;;;;8.05;3.42;;;18.90;99.90;;;;;;4179309;28;20092;-80
2023/08/22 01:14:53;;;;;;;5.40;2.75;;;18.60;99.90;;;;;;4191436;27;20058;-80
2023/08/22 01:16:54;;;;;;;6.47;2.97;;;18.90;99.90;;;;;;4247538;27;20043;-80
2023/08/22 01:18:55;;;;;;;5.93;2.72;;;18.90;99.90;;;;;;4248114;27;20074;-80
2023/08/22 01:21:04;;;;;;;6.70;3.10;;;18.90;99.90;;;;;;4247896;27;20041;-80
2023/08/22 01:23:05;;;;;;;8.48;3.00;;;18.80;99.90;;;;;;4248092;27;20047;-80
2023/08/22 01:25:09;;;;;;;6.35;3.67;;;18.90;99.90;;;;;;4229745;28;20035;-80
2023/08/22 01:27:12;;;;;;;7.22;3.50;;;18.80;99.90;;;;;;4247422;27;20043;-80
2023/08/22 01:29:20;;;;;;;9.05;3.75;;;18.70;99.90;;;;;;4248100;27;20402;-80
2023/08/22 01:31:36;;;;;;;7.75;3.72;;;18.70;99.90;;;;;;4247991;28;20047;-80
2023/08/22 01:33:46;;;;;;;8.00;3.47;;;18.70;99.90;;;;;;4247957;28;20051;-80
2023/08/22 01:35:50;;;;;;;7.15;3.42;;;18.70;99.90;;;;;;4247935;28;20126;-80
2023/08/22 01:37:53;;;;;;;4.38;2.95;;;18.60;99.90;;;;;;4247960;28;20132;-80
2023/08/22 01:39:56;;;;;;;6.13;3.53;;;18.60;99.90;;;;;;4247912;28;20050;-80
2023/08/22 01:41:58;;;;;;;6.95;3.60;;;18.60;99.90;;;;;;4247441;28;20043;-80
2023/08/22 01:44:00;;;;;;;6.03;3.40;;;18.60;99.90;;;;;;4247863;28;20047;-80
2023/08/22 01:46:01;;;;;;;8.18;3.42;;;18.60;99.90;;;;;;4247916;28;20039;-80
2023/08/22 01:48:01;;;;;;;5.85;3.58;;;18.60;99.90;;;;;;4229681;28;20111;-80
2023/08/22 01:50:03;;;;;;;7.72;3.53;;;18.60;99.90;;;;;;4247791;28;20040;-80
2023/08/22 01:52:04;;;;;;;7.40;4.22;;;18.60;99.90;;;;;;4247438;28;20043;-80
2023/08/22 01:54:05;;;;;;;8.05;4.00;;;18.60;99.90;;;;;;4247880;28;20036;-80
2023/08/22 01:56:06;;;;;;;6.88;3.20;;;18.50;99.90;;;;;;4229272;28;20039;-80
2023/08/22 01:58:10;;;;;;;10.73;3.38;;;18.50;99.90;;;;;;4229194;28;20461;-80
2023/08/22 02:00:12;;;;;;;8.43;3.83;;;18.50;99.90;;;;;;4247753;28;20053;-80
2023/08/22 02:02:12;;;;;;;7.15;3.58;;;18.50;99.90;;;;;;4247836;28;20035;-80
2023/08/22 02:04:13;;;;;;;7.28;3.97;;;18.50;99.90;;;;;;4247445;28;20046;-80
2023/08/22 02:06:14;;;;;;;9.48;3.83;;;18.40;99.90;;;;;;4247274;28;20415;-80
2023/08/22 02:08:15;;;;;;;7.07;3.58;;;18.40;99.90;;;;;;4230815;28;20048;-80
2023/08/22 02:10:15;;;;;;;9.45;3.50;;;18.30;99.90;;;;;;4230717;28;20050;-80
2023/08/22 02:12:16;;;;;;;7.13;4.03;;;18.30;99.90;;;;;;4230653;28;20050;-80
2023/08/22 02:14:17;;;;;;;6.47;3.03;;;18.30;99.90;;;;;;4229417;28;20112;-80
2023/08/22 02:16:18;;;;;;;7.32;3.08;;;18.30;99.90;;;;;;4214817;28;20124;-80
2023/08/22 02:18:18;;;;;;;5.15;2.72;;;18.00;99.90;;;;;;4197125;28;20470;-80
2023/08/22 02:20:19;;;;;;;7.72;3.25;;;18.20;99.90;;;;;;4198259;28;20052;-80
2023/08/22 02:22:20;;;;;;;7.05;2.90;;;18.10;99.90;;;;;;4199898;28;20044;-80
2023/08/22 02:24:21;;;;;;;7.03;3.15;;;18.00;99.90;;;;;;4199460;28;20382;-80
2023/08/22 02:26:21;;;;;;;7.22;3.58;;;18.00;99.90;;;;;;4226778;28;20388;-80
2023/08/22 02:28:22;;;;;;;6.30;3.85;;;17.90;99.90;;;;;;4233775;28;20032;-80
2023/08/22 02:30:23;;;;;;;5.97;3.45;;;17.90;99.90;;;;;;4232504;28;20050;-80
2023/08/22 02:32:24;;;;;;;8.38;3.47;;;17.80;99.90;;;;;;4210443;28;20052;-80
2023/08/22 02:34:25;;;;;;;6.95;3.25;;;17.80;99.90;;;;;;4199716;28;20493;-80
2023/08/22 02:36:26;;;;;;;5.53;3.20;;;17.80;99.90;;;;;;4198581;28;20497;-80
2023/08/22 02:38:27;;;;;;;7.80;3.40;;;17.80;99.90;;;;;;4199722;28;20048;-80
2023/08/22 02:40:28;;;;;;;6.00;3.65;;;17.70;99.90;;;;;;4213517;28;20052;-80
2023/08/22 02:42:28;;;;;;;9.93;4.55;;;17.70;99.90;;;;;;4233608;28;20054;-80
2023/08/22 02:44:29;;;;;;;5.68;3.28;;;17.70;99.90;;;;;;4232168;28;20821;-80
2023/08/22 02:46:30;;;;;;;6.10;3.63;;;17.70;99.90;;;;;;4233450;28;20126;-80
2023/08/22 02:48:31;;;;;;;7.00;3.38;;;17.70;99.90;;;;;;4233547;28;20036;-80
2023/08/22 02:50:32;;;;;;;5.82;3.95;;;17.60;99.90;;;;;;4201095;28;20044;-80
2023/08/22 02:52:33;;;;;;;4.07;2.97;;;17.70;99.90;;;;;;4198423;28;20048;-80
2023/08/22 02:54:33;;;;;;;5.78;3.38;;;17.70;99.90;;;;;;4199704;28;20037;-80
2023/08/22 02:56:34;;;;;;;5.70;2.83;;;17.60;99.90;;;;;;4199898;28;20048;-80
2023/08/22 02:58:35;;;;;;;6.45;2.90;;;18.00;99.90;;;;;;4199965;28;20045;-80
2023/08/22 03:00:36;;;;;;;8.52;3.40;;;17.60;99.90;;;;;;4200640;28;20531;-80
2023/08/22 03:02:39;;;;;;;6.13;3.38;;;17.60;99.90;;;;;;4200176;28;20051;-79
2023/08/22 03:04:40;;;;;;;8.73;3.42;;;17.60;99.90;;;;;;4199086;28;20041;-79
2023/08/22 03:06:41;;;;;;;6.10;4.00;;;17.60;99.90;;;;;;4206600;28;20057;-80
2023/08/22 03:08:42;;;;;;;7.88;3.55;;;17.60;99.90;;;;;;4233030;28;20383;-80
2023/08/22 03:10:43;;;;;;;7.57;3.78;;;17.50;99.90;;;;;;4233033;28;20070;-79
2023/08/22 03:12:44;;;;;;;7.85;3.85;;;17.50;99.90;;;;;;4245514;28;20032;-79
2023/08/22 03:14:44;;;;;;;9.43;4.20;;;17.60;99.90;;;;;;4233059;28;20123;-79
2023/08/22 03:16:45;;;;;;;7.75;4.55;;;17.60;99.90;;;;;;4233726;28;20433;-79
2023/08/22 03:18:46;;;;;;;7.38;3.97;;;17.60;99.90;;;;;;4232530;28;20119;-80
2023/08/22 03:20:47;;;;;;;9.80;4.53;;;17.60;99.90;;;;;;4232911;28;20048;-80
2023/08/22 03:22:47;;;;;;;9.10;4.40;;;17.50;99.90;;;;;;4232598;28;20043;-80
2023/08/22 03:24:48;;;;;;;10.27;3.70;;;17.50;99.90;;;;;;4232762;28;20392;-80
2023/08/22 03:26:49;;;;;;;7.28;3.85;;;17.50;99.90;;;;;;4232445;28;20100;-80
2023/08/22 03:28:50;;;;;;;8.38;4.40;;;17.50;99.90;;;;;;4232561;28;20055;-80
2023/08/22 03:30:57;;;;;;;5.38;3.60;;;17.50;99.90;;;;;;4232947;28;20405;-80
2023/08/22 03:32:57;;;;;;;5.68;3.45;;;17.50;99.90;;;;;;4231941;28;20051;-80
2023/08/22 03:34:58;;;;;;;4.70;3.40;;;17.40;99.90;;;;;;4232506;28;20054;-80
2023/08/22 03:36:59;;;;;;;4.70;2.70;;;17.40;99.90;;;;;;4232538;28;20071;-80
2023/08/22 03:39:00;;;;;;;6.22;2.78;;;17.30;99.90;;;;;;4232145;28;20114;-80
2023/08/22 03:41:00;;;;;;;6.40;3.25;;;17.30;99.90;;;;;;4232233;28;20043;-80
2023/08/22 03:43:02;;;;;;;7.10;2.55;;;17.20;99.90;;;;;;4214649;28;20492;-80
2023/08/22 03:45:03;;;;;;;5.20;2.67;;;17.20;99.90;;;;;;4214490;28;20047;-80
2023/08/22 03:47:04;;;;;;;4.78;2.40;;;17.10;99.90;;;;;;4231686;28;20054;-80
2023/08/22 03:49:05;;;;;;;3.55;1.92;;;17.10;99.90;;;;;;4232427;28;20535;-80
2023/08/22 03:51:06;;;;;;;3.55;1.90;;;17.10;99.90;;;;;;4232122;28;20130;-80
2023/08/22 03:53:08;;;;;;;3.17;1.92;;;17.00;99.90;;;;;;4232451;28;20384;-80
2023/08/22 03:55:09;;;;;;;2.88;1.50;;;17.00;99.90;;;;;;4232366;28;20476;-80
2023/08/22 03:57:10;;;;;;;4.20;1.40;;;16.90;99.90;;;;;;4232245;28;20047;-80
2023/08/22 03:59:10;;;;;;;2.20;0.95;;;16.90;99.90;;;;;;4197378;28;20056;-80
2023/08/22 04:01:11;;;;;;;2.08;0.90;;;16.80;99.90;;;;;;4213843;28;20480;-80
2023/08/22 04:03:12;;;;;;;1.70;1.10;;;16.80;99.90;;;;;;4232050;28;20040;-80
2023/08/22 04:05:13;;;;;;;2.80;1.45;;;16.70;99.90;;;;;;4232057;28;20043;-80
2023/08/22 04:07:13;;;;;;;2.08;1.50;;;16.70;99.90;;;;;;4231691;28;20045;-80
2023/08/22 04:09:14;;;;;;;3.10;2.00;;;16.70;99.90;;;;;;4213766;28;20102;-80
2023/08/22 04:11:15;;;;;;;3.05;1.73;;;16.70;99.90;;;;;;4231452;28;20172;-79
2023/08/22 04:13:16;;;;;;;2.50;1.95;;;16.60;99.90;;;;;;4231782;28;20046;-80
2023/08/22 04:15:17;;;;;;;3.20;1.80;;;16.70;99.90;;;;;;4231739;28;20040;-80
2023/08/22 04:17:17;;;;;;;3.78;1.67;;;16.60;99.90;;;;;;4231858;28;20143;-80
2023/08/22 04:19:18;;;;;;;3.33;2.00;;;16.60;99.90;;;;;;4213328;28;20043;-80
2023/08/22 04:21:19;;;;;;;3.08;1.90;;;16.60;99.90;;;;;;4213424;28;20048;-80
2023/08/22 04:23:20;;;;;;;3.25;1.70;;;16.50;99.90;;;;;;4231523;28;20518;-79
2023/08/22 04:25:20;;;;;;;3.03;2.03;;;16.50;99.90;;;;;;4231597;28;20039;-79
2023/08/22 04:27:21;;;;;;;3.47;1.77;;;16.50;99.90;;;;;;4231541;28;20043;-80
2023/08/22 04:29:22;;;;;;;3.95;2.20;;;16.50;99.90;;;;;;4231533;28;20035;-79
2023/08/22 04:31:24;;;;;;;6.78;3.20;;;16.60;99.90;;;;;;4212965;28;20369;-79
2023/08/22 04:33:25;;;;;;;5.30;2.60;;;16.60;99.90;;;;;;4231357;28;20136;-79
2023/08/22 04:35:26;;;;;;;6.88;3.13;;;16.70;99.90;;;;;;4231175;28;20483;-80
2023/08/22 04:37:27;;;;;;;7.93;3.10;;;16.50;99.90;;;;;;4230643;27;20428;-80
2023/08/22 04:39:28;;;;;;;8.15;3.80;;;16.60;99.90;;;;;;4230862;28;20514;-80
2023/08/22 04:41:29;;;;;;;7.88;4.05;;;16.60;99.90;;;;;;4231153;28;20482;-80
2023/08/22 04:43:29;;;;;;;9.00;3.83;;;16.60;99.90;;;;;;4221595;28;20051;-80
2023/08/22 04:45:30;;;;;;;8.80;3.58;;;16.60;99.90;;;;;;4248445;27;20043;-80
2023/08/22 04:47:31;;;;;;;6.70;4.47;;;16.60;99.90;;;;;;4229939;28;20056;-80
2023/08/22 04:49:32;;;;;;;9.85;4.65;;;16.70;99.90;;;;;;4223297;28;20484;-80
2023/08/22 04:51:32;;;;;;;10.55;5.30;;;16.70;99.90;;;;;;4231466;28;20039;-80
2023/08/22 04:53:33;;;;;;;11.18;5.25;;;16.70;99.90;;;;;;4231112;28;20036;-80
2023/08/22 04:55:34;;;;;;;20.00;6.70;;;16.70;99.90;;;;;;4238480;27;20114;-80
2023/08/22 04:57:35;;;;;;;15.10;6.57;;;16.80;99.90;;;;;;4212990;28;20044;-80
2023/08/22 04:59:36;;;;;;;11.45;5.50;;;16.80;99.90;;;;;;4247567;27;20126;-80
2023/08/22 05:01:36;;;;;;;16.67;7.10;;;17.10;99.90;;;;;;4234802;27;20067;-80
2023/08/22 05:03:37;;;;;;;13.85;6.70;;;16.90;99.90;;;;;;4231403;28;20107;-80
2023/08/22 05:05:38;;;;;;;13.27;5.47;;;16.90;99.90;;;;;;4231213;28;20039;-80
2023/08/22 05:07:39;;;;;;;17.60;7.15;;;16.90;99.90;;;;;;4212409;28;20142;-80
2023/08/22 05:09:39;;;;;;;14.30;6.10;;;17.00;99.90;;;;;;4230993;28;20040;-80
2023/08/22 05:11:40;;;;;;;13.95;6.28;;;17.00;99.90;;;;;;4213031;28;20063;-80
2023/08/22 05:13:41;;;;;;;11.40;6.50;;;17.00;99.90;;;;;;4213105;28;20123;-80
2023/08/22 05:15:43;;;;;;;15.15;5.70;;;17.00;99.90;;;;;;4241127;27;20122;-80
2023/08/22 05:17:44;;;;;;;12.23;5.72;;;17.10;99.90;;;;;;4247794;27;20051;-80
2023/08/22 05:19:44;;;;;;;14.38;5.85;;;17.10;99.90;;;;;;4248031;27;20400;-80
2023/08/22 05:21:45;;;;;;;14.13;6.22;;;17.20;99.90;;;;;;4241941;27;20031;-80
2023/08/22 05:23:46;;;;;;;14.27;5.90;;;17.80;99.90;;;;;;4247705;27;20047;-81
2023/08/22 05:25:47;;;;;;;10.07;5.32;;;17.30;99.90;;;;;;4229677;28;20039;-82
2023/08/22 05:27:47;;;;;;;11.88;5.82;;;17.40;99.90;;;;;;4229562;28;20075;-82
2023/08/22 05:29:48;;;;;;;13.23;5.72;;;17.30;99.90;;;;;;4229738;28;20095;-82
2023/08/22 05:31:49;;;;;;;9.82;4.97;;;17.30;99.90;;;;;;4243872;27;20035;-82
2023/08/22 05:33:51;;;;;;;11.38;5.65;;;17.40;99.90;;;;;;4244771;27;20050;-81
2023/08/22 05:35:52;;;;;;;12.25;4.90;;;17.40;99.90;;;;;;4247016;28;20047;-81
2023/08/22 05:37:52;;;;;;;13.52;6.40;;;17.50;99.90;;;;;;4226748;28;20568;-81
2023/08/22 05:39:53;;;;;;;16.67;5.25;;;17.50;99.90;;;;;;4247770;28;20484;-81
2023/08/22 05:41:54;;;;;;;9.90;4.63;;;17.50;99.90;;;;;;4247075;28;20093;-81
2023/08/22 05:43:55;;;;;;;11.73;4.70;;;17.60;99.90;;;;;;4227333;28;20050;-82
2023/08/22 05:45:55;;;;;;;14.27;5.78;;;17.60;99.90;;;;;;4227715;28;20114;-81
2023/08/22 05:47:56;;;;;;;11.05;4.70;;;17.70;99.90;;;;;;4247337;28;20043;-81
2023/08/22 05:49:57;;;;;;;12.98;4.40;;;17.70;99.90;;;;;;4247154;28;20106;-81
2023/08/22 05:52:05;;;;;;;7.03;4.43;;;17.80;99.90;;;;;;4245883;28;20544;-81
2023/08/22 05:54:05;;;;;;;9.15;4.25;;;17.90;99.90;;;;;;4247359;27;20130;-82
2023/08/22 05:56:06;;;;;;;11.25;4.22;;;17.90;99.90;;;;;;4249785;27;20077;-81
2023/08/22 05:58:07;;;;;;;8.10;4.60;;;18.00;99.90;;;;;;4218913;28;20201;-81
2023/08/22 06:00:08;;;;;;;9.90;4.78;;;18.00;99.90;;;;;;4235942;27;20046;-83
2023/08/22 06:02:09;;;;;;;8.20;4.65;;;18.10;99.90;;;;;;4204803;28;20101;-83
2023/08/22 06:04:10;;;;;;;11.40;5.03;;;18.10;99.90;;;;;;4232860;28;20499;-83
2023/08/22 06:06:11;;;;;;;12.98;4.22;;;18.10;99.90;;;;;;4229323;28;20036;-82
2023/08/22 06:08:13;;;;;;;7.32;3.90;;;18.20;99.90;;;;;;4234111;28;20059;-83
2023/08/22 06:10:14;;;;;;;7.75;4.20;;;18.20;99.90;;;;;;4233916;28;20127;-82
2023/08/22 06:12:14;;;;;;;8.27;3.53;;;18.20;99.90;;;;;;4233911;28;20028;-83
2023/08/22 06:14:15;;;;;;;14.15;4.20;;;18.30;99.90;;;;;;4223694;27;20047;-84
2023/08/22 06:16:16;;;;;;;9.07;3.88;;;18.30;99.90;;;;;;4233381;28;20126;-84
2023/08/22 06:18:17;;;;;;;9.80;3.92;;;18.40;99.90;;;;;;4252059;27;20047;-84
2023/08/22 06:20:17;;;;;;;8.27;4.57;;;18.50;99.90;;;;;;4216628;28;20052;-84
2023/08/22 06:22:19;;;;;;;7.35;3.45;;;18.60;99.90;;;;;;4234530;28;20446;-85
2023/08/22 06:24:20;;;;;;;11.43;4.57;;;18.60;99.90;;;;;;4252046;27;20034;-84
2023/08/22 06:26:22;;;;;;;7.70;4.32;;;18.70;99.90;;;;;;4216216;28;20079;-84
2023/08/22 06:28:23;;;;;;;9.43;4.45;;;18.70;99.90;;;;;;4233020;28;20419;-84
2023/08/22 06:30:24;;;;;;;14.23;3.72;;;18.70;99.90;;;;;;4250765;27;20082;-84
2023/08/22 06:32:25;;;;;;;9.80;4.05;;;18.70;99.90;;;;;;4238855;27;20043;-84
2023/08/22 06:34:27;;;;;;;7.95;3.65;;;18.60;99.90;;;;;;4216559;28;20083;-84
2023/08/22 06:36:28;;;;;;;9.52;4.10;;;18.60;99.90;;;;;;4236062;28;20118;-84
2023/08/22 06:38:28;;;;;;;7.28;3.70;;;18.60;99.90;;;;;;4199842;28;20056;-84
2023/08/22 06:40:29;;;;;;;10.05;3.95;;;18.70;99.90;;;;;;4217532;28;20443;-84
2023/08/22 06:42:30;;;;;;;10.90;4.05;;;18.70;99.90;;;;;;4234877;28;20055;-84
2023/08/22 06:44:30;;;;;;;12.95;3.42;;;18.70;99.90;;;;;;4234926;28;20048;-84
2023/08/22 06:46:31;;;;;;;8.90;4.05;;;18.80;99.90;;;;;;4234549;28;20050;-84
2023/08/22 06:48:32;;;;;;;7.53;3.35;;;18.90;99.90;;;;;;4234987;28;20044;-85
2023/08/22 06:50:33;;;;;;;12.27;3.75;;;19.00;99.90;;;;;;4234448;28;20032;-84
2023/08/22 06:52:35;;;;;;;9.50;3.28;;;19.10;99.90;;;;;;4216226;28;20131;-83
2023/08/22 06:54:36;;;;;;;7.70;3.83;;;19.20;99.90;;;;;;4216117;28;20138;-84
2023/08/22 06:56:37;;;;;;;6.80;3.70;;;19.20;99.90;;;;;;4233878;28;20040;-83
2023/08/22 06:58:37;;;;;;;6.20;3.40;;;19.30;99.90;;;;;;4215225;28;20051;-83
2023/08/22 07:00:38;;;;;;;8.18;3.33;;;19.40;99.90;;;;;;4198489;28;20086;-83
2023/08/22 07:02:44;;;;;;;11.00;4.68;;;19.40;99.90;;;;;;4215197;28;20052;-83
2023/08/22 07:04:44;;;;;;;7.03;3.75;;;19.50;99.90;;;;;;4233639;28;20050;-83
2023/08/22 07:06:45;;;;;;;6.20;3.15;;;19.50;99.90;;;;;;4232014;28;20044;-84
2023/08/22 07:08:47;;;;;;;5.70;3.40;;;19.60;99.90;;;;;;4233139;28;20445;-84
2023/08/22 07:10:47;;;;;;;8.10;2.75;;;19.70;99.90;;;;;;4232958;28;20048;-84
2023/08/22 07:12:48;;;;;;;6.00;3.22;;;19.70;99.90;;;;;;4214830;28;20036;-83
2023/08/22 07:14:49;;;;;;;9.57;3.22;;;19.70;99.90;;;;;;4197981;28;20045;-83
2023/08/22 07:16:50;;;;;;;7.13;3.40;;;19.70;99.90;;;;;;4232966;28;20495;-83
2023/08/22 07:18:50;;;;;;;7.45;3.03;;;19.70;99.90;;;;;;4232894;28;20484;-85
2023/08/22 07:20:52;;;;;;;7.93;3.33;;;19.80;99.90;;;;;;4214865;28;20054;-85
2023/08/22 07:22:52;;;;;;;8.07;3.22;;;19.80;99.90;;;;;;4232286;28;20108;-81
2023/08/22 07:24:53;;;;;;;7.72;3.35;;;20.00;99.90;;;;;;4233933;27;20129;-82
2023/08/22 07:26:54;;;;;;;9.20;3.50;;;20.00;99.90;;;;;;4214301;28;20036;-82
2023/08/22 07:28:54;;;;;;;5.40;2.53;;;20.10;99.90;;;;;;4232426;28;20067;-82
2023/08/22 07:30:55;;;;;;;7.57;3.28;;;20.20;99.90;;;;;;4232391;28;20040;-82
2023/08/22 07:32:56;;;;;;;9.90;3.00;;;20.20;99.90;;;;;;4232784;28;20054;-82
2023/08/22 07:34:57;;;;;;;11.45;3.33;;;20.20;99.90;;;;;;4232134;28;20043;-82
2023/08/22 07:36:59;;;;;;;7.18;3.30;;;20.20;99.90;;;;;;4232627;28;20050;-83
2023/08/22 07:39:00;;;;;;;11.02;3.38;;;20.30;99.90;;;;;;4232531;28;20083;-82
2023/08/22 07:41:01;;;;;;;9.07;2.65;;;20.40;99.90;;;;;;4214572;28;20404;-82
2023/08/22 07:43:01;;;;;;;9.27;3.00;;;20.50;99.90;;;;;;4233381;28;20043;-82
2023/08/22 07:45:04;;;;;;;7.93;3.20;;;20.60;99.90;;;;;;4216435;28;20400;-82
2023/08/22 07:47:05;;;;;;;8.95;2.70;;;21.80;99.90;;;;;;4232733;28;20050;-82
2023/08/22 07:49:07;;;;;;;6.38;3.25;;;20.90;99.90;;;;;;4234074;28;20467;-82
2023/08/22 07:51:08;;;;;;;4.85;2.60;;;21.00;99.90;;;;;;4234748;28;20063;-82
2023/08/22 07:53:08;;;;;;;11.55;3.00;;;21.00;99.90;;;;;;4232426;28;20124;-82
2023/08/22 07:55:09;;;;;;;5.78;2.92;;;21.30;99.90;;;;;;4232708;28;20039;-82
2023/08/22 07:57:11;;;;;;;7.93;2.88;;;21.40;99.90;;;;;;4232812;28;20047;-82
2023/08/22 07:59:13;;;;;;;7.38;2.30;;;21.40;99.90;;;;;;4232998;28;20051;-81
2023/08/22 08:01:14;;;;;;;5.18;2.40;;;21.10;99.90;;;;;;4232395;28;20092;-82
2023/08/22 08:03:15;;;;;;;5.43;2.10;;;21.30;99.90;;;;;;4214019;28;20461;-81
2023/08/22 08:05:15;;;;;;;4.00;1.85;;;21.30;99.90;;;;;;4231660;28;20077;-81
2023/08/22 08:07:16;;;;;;;6.07;2.10;;;21.30;99.90;;;;;;4231705;28;20047;-82
2023/08/22 08:09:17;;;;;;;4.72;1.98;;;21.30;99.90;;;;;;4232042;27;20414;-82
2023/08/22 08:11:18;;;;;;;7.15;1.92;;;21.40;99.90;;;;;;4231844;28;20031;-82
2023/08/22 08:13:19;;;;;;;5.22;2.35;;;21.50;99.90;;;;;;4213786;28;20520;-86
2023/08/22 08:15:19;;;;;;;6.40;2.50;;;21.70;99.90;;;;;;4231436;28;20077;-80
2023/08/22 08:17:20;;;;;;;10.18;2.63;;;21.80;99.90;;;;;;4196791;28;20536;-79
2023/08/22 08:19:21;;;;;;;5.47;2.50;;;21.90;99.90;;;;;;4230697;28;20062;-80
2023/08/22 08:21:22;;;;;;;6.18;2.15;;;22.00;99.90;;;;;;4250315;28;20071;-79
2023/08/22 08:23:23;;;;;;;9.82;2.90;;;22.20;99.90;;;;;;4197950;28;20582;-80
2023/08/22 08:25:24;;;;;;;6.25;2.00;;;22.40;99.90;;;;;;4231153;28;20411;-80
2023/08/22 08:27:25;;;;;;;4.70;2.13;;;22.70;99.90;;;;;;4197156;28;20512;-79
2023/08/22 08:29:26;;;;;;;4.78;1.95;;;22.90;99.90;;;;;;4231961;27;20039;-81
2023/08/22 08:31:27;;;;;;;5.40;2.25;;;23.00;99.90;;;;;;4231134;28;20039;-81
2023/08/22 08:33:28;;;;;;;5.85;2.20;;;23.00;99.90;;;;;;4231276;28;20054;-82
2023/08/22 08:35:28;;;;;;;4.93;2.00;;;23.20;99.90;;;;;;4213363;28;20044;-82
2023/08/22 08:37:29;;;;;;;6.90;2.47;;;23.30;99.90;;;;;;4213621;28;20054;-82
2023/08/22 08:39:30;;;;;;;6.13;2.38;;;23.40;99.90;;;;;;4231659;28;20056;-81
2023/08/22 08:41:33;;;;;;;6.32;2.40;;;23.60;99.90;;;;;;4230905;28;20122;-81
2023/08/22 08:43:34;;;;;;;3.88;1.92;;;23.60;99.90;;;;;;4231591;28;20376;-82
2023/08/22 08:45:36;;;;;;;4.82;2.28;;;23.50;99.90;;;;;;4213634;28;20078;-81
2023/08/22 08:47:39;;;;;;;7.10;2.00;;;23.30;99.90;;;;;;4231374;28;20043;-81
2023/08/22 08:49:40;;;;;;;4.90;2.00;;;23.20;99.90;;;;;;4231044;28;20407;-81
2023/08/22 08:51:45;;;;;;;3.83;1.80;;;23.00;99.90;;;;;;4231311;28;20051;-81
2023/08/22 08:53:48;;;;;;;3.55;1.95;;;22.90;99.90;;;;;;4213129;28;20484;-81
2023/08/22 08:55:51;;;;;;;2.83;1.27;;;23.00;99.90;;;;;;4231257;28;20048;-81
2023/08/22 08:57:52;;;;;;;5.70;1.48;;;23.10;99.90;;;;;;4220812;28;20124;-81
2023/08/22 08:59:53;;;;;;;4.55;1.40;;;23.40;99.90;;;;;;4238892;27;20074;-81
2023/08/22 09:01:55;;;;;;;3.03;1.35;;;23.80;99.90;;;;;;4247826;27;20394;-81
2023/08/22 09:03:56;;;;;;;3.80;1.60;;;24.10;99.90;;;;;;4224895;28;20043;-81
2023/08/22 09:05:56;;;;;;;7.47;1.52;;;24.20;99.90;;;;;;4248659;27;20035;-81
2023/08/22 09:08:16;;;;;;;5.85;1.55;;;24.30;99.90;;;;;;4247564;27;20054;-82
2023/08/22 09:10:34;;;;;;;5.72;2.50;;;24.40;99.90;;;;;;4247663;27;20039;-81
2023/08/22 09:12:36;;;;;;;4.75;1.50;;;24.30;99.90;;;;;;4247722;27;20123;-81
2023/08/22 09:14:49;;;;;;;7.53;1.45;;;24.30;99.90;;;;;;4247804;27;20039;-81
2023/08/22 09:16:49;;;;;;;4.40;1.13;;;24.20;99.90;;;;;;4247952;27;20433;-81
2023/08/22 09:18:50;;;;;;;6.45;1.63;;;24.20;99.90;;;;;;4247736;27;20118;-81
2023/08/22 09:20:51;;;;;;;4.82;1.45;;;24.30;99.90;;;;;;4240852;27;20036;-82
2023/08/22 09:22:52;;;;;;;1.92;1.30;;;24.40;99.90;;;;;;4231567;28;20047;-81
2023/08/22 09:24:54;;;;;;;2.55;1.27;;;24.40;99.90;;;;;;4230697;28;20534;-81
2023/08/22 09:26:55;;;;;;;2.65;1.17;;;24.40;99.90;;;;;;4213076;28;20066;-81
2023/08/22 09:28:56;;;;;;;2.38;1.20;;;24.40;99.90;;;;;;4213340;28;20054;-81
2023/08/22 09:30:57;;;;;;;3.35;1.10;;;24.40;99.90;;;;;;4230899;28;20090;-81
2023/08/22 09:32:59;;;;;;;2.42;1.00;;;24.50;99.90;;;;;;4231007;28;20040;-81
2023/08/22 09:35:02;;;;;;;5.25;1.23;;;24.60;99.90;;;;;;4236583;28;20047;-81
2023/08/22 09:37:03;;;;;;;4.07;1.50;;;24.60;99.90;;;;;;4235935;28;20158;-82
2023/08/22 09:39:03;;;;;;;4.50;1.75;;;24.80;99.90;;;;;;4231669;28;20365;-82
2023/08/22 09:41:05;;;;;;;2.83;1.30;;;25.00;99.90;;;;;;4231355;28;20569;-82
2023/08/22 09:43:06;;;;;;;4.15;1.83;;;25.10;99.90;;;;;;4245226;28;20027;-81
2023/08/22 09:45:08;;;;;;;2.30;1.23;;;25.30;99.90;;;;;;4249877;28;20043;-81
2023/08/22 09:47:09;;;;;;;4.60;1.60;;;25.60;99.90;;;;;;4235979;28;20115;-79
2023/08/22 09:49:15;;;;;;;4.82;2.22;;;25.90;99.90;;;;;;4212514;28;20416;-81
2023/08/22 09:51:20;;;;;;;3.70;1.90;;;25.80;99.90;;;;;;4230949;28;20043;-80
2023/08/22 09:53:22;;;;;;;3.53;1.55;;;25.60;99.90;;;;;;4232502;28;20079;-79
2023/08/22 09:55:24;;;;;;;1.95;1.33;;;25.50;99.90;;;;;;4234508;28;20051;-80
2023/08/22 09:57:27;;;;;;;4.07;1.45;;;25.50;99.90;;;;;;4246193;28;20051;-79
2023/08/22 09:59:28;;;;;;;4.22;1.55;;;25.70;99.90;;;;;;4249555;27;20039;-80
2023/08/22 10:01:32;;;;;;;4.15;1.50;;;25.80;99.90;;;;;;4264505;27;20078;-80
2023/08/22 10:03:35;;;;;;;4.53;2.03;;;25.80;99.90;;;;;;4250596;27;20047;-80
2023/08/22 10:05:37;;;;;;;2.85;1.60;;;25.90;99.90;;;;;;4229366;28;20054;-79
2023/08/22 10:07:38;;;;;;;5.40;1.45;;;26.10;99.90;;;;;;4247418;28;20052;-80
2023/08/22 10:09:40;;;;;;;4.90;1.63;;;26.30;99.90;;;;;;4247552;28;20499;-80
2023/08/22 10:11:48;;;;;;;5.38;1.70;;;26.50;99.90;;;;;;4247647;28;20083;-80
2023/08/22 10:13:50;;;;;;;5.85;1.70;;;26.60;99.90;;;;;;4229321;28;20122;-80
2023/08/22 10:15:51;;;;;;;6.97;1.80;;;26.80;99.90;;;;;;4228930;28;20047;-81
2023/08/22 10:17:52;;;;;;;5.20;2.33;;;26.70;99.90;;;;;;4228794;28;20052;-80
2023/08/22 10:20:01;;;;;;;5.65;2.30;;;26.50;99.90;;;;;;4229315;28;20550;-80
2023/08/22 10:22:07;;;;;;;6.40;2.30;;;26.40;99.90;;;;;;4229035;28;20052;-80
2023/08/22 10:24:31;;;;;;;6.35;2.70;;;26.40;99.90;;;;;;4242370;28;20502;-80
2023/08/22 10:26:50;;;;;;;8.27;1.77;;;26.60;99.90;;;;;;4247490;28;20074;-80
2023/08/22 10:29:13;;;;;;;5.72;1.92;;;26.70;99.90;;;;;;4245931;28;20044;-80
2023/08/22 10:31:14;;;;;;;4.75;2.20;;;27.10;99.90;;;;;;4247282;28;20081;-80
2023/08/22 10:33:26;;;;;;;4.90;1.98;;;;;;;;;;4247682;28;20043;-80